createdAt,value
2023-06-29T02:09:45.292Z,49.61
2023-06-29T02:12:04.306Z,48.55
2023-06-29T02:13:04.408Z,48.31
2023-06-29T02:14:04.216Z,48.19
2023-06-29T02:15:05.265Z,48.14
2023-06-29T02:16:05.266Z,48.07
2023-06-29T02:17:05.200Z,48.06
2023-06-29T02:18:05.256Z,48.02
2023-06-29T05:03:39.026Z,48.74
2023-06-29T05:04:39.990Z,47.59
2023-06-29T05:05:39.025Z,47.40
2023-06-29T05:06:40.069Z,47.27
2023-06-29T05:07:40.129Z,47.23
2023-06-29T05:08:39.163Z,47.13
2023-06-29T05:09:39.230Z,47.11
2023-06-29T05:10:40.250Z,47.08
2023-06-29T05:11:40.311Z,47.08
2023-06-29T05:12:39.360Z,47.01
2023-06-29T05:13:39.414Z,47.00
2023-06-29T05:14:40.469Z,46.96
2023-06-29T05:15:40.537Z,46.93
2023-06-29T05:16:39.593Z,46.92
2023-06-29T05:17:40.617Z,46.91
2023-06-29T05:18:39.614Z,46.91
2023-06-29T05:19:40.689Z,46.87
2023-06-29T05:20:39.704Z,46.88
2023-06-29T05:21:39.758Z,46.82
2023-06-29T05:22:40.797Z,46.84
2023-06-29T05:23:39.851Z,46.82
2023-06-29T05:24:40.875Z,46.82
2023-06-29T05:25:41.049Z,46.85
2023-06-29T05:26:40.942Z,46.82
2023-06-29T05:27:40.986Z,46.87
2023-06-29T05:28:41.358Z,46.48
2023-06-29T05:29:41.028Z,45.93
2023-06-29T05:30:41.015Z,45.89
2023-06-29T05:31:41.042Z,45.95
2023-06-29T05:32:39.997Z,45.73
2023-06-29T05:33:41.078Z,45.92
2023-06-29T05:34:41.005Z,45.85
2023-06-29T05:35:41.171Z,45.77
2023-06-29T05:36:40.950Z,45.64
2023-06-29T05:37:39.961Z,45.41
2023-06-29T05:38:40.978Z,45.32
2023-06-29T05:39:40.953Z,45.39
2023-06-29T05:40:44.057Z,45.39
2023-06-29T05:41:40.935Z,45.11
2023-06-29T05:42:39.928Z,45.17
2023-06-29T05:43:40.914Z,45.39
2023-06-29T05:44:39.942Z,45.25
2023-06-29T05:45:40.951Z,45.39
2023-06-29T05:46:40.904Z,45.58
2023-06-29T05:47:40.905Z,45.69
2023-06-29T05:48:39.887Z,45.84
2023-06-29T05:49:39.872Z,45.78
2023-06-29T05:50:40.917Z,45.75
2023-06-29T05:51:39.865Z,45.82
2023-06-29T05:52:40.848Z,45.84
2023-06-29T05:53:40.884Z,46.01
2023-06-29T05:54:39.836Z,46.02
2023-06-29T05:55:39.859Z,45.93
2023-06-29T05:56:40.820Z,46.00
2023-06-29T05:57:39.822Z,45.97
2023-06-29T05:58:39.792Z,46.09
2023-06-29T05:59:40.804Z,46.20
2023-06-29T06:00:40.833Z,46.26
2023-06-29T06:01:39.822Z,46.35
2023-06-29T06:02:39.812Z,46.33
2023-06-29T06:03:40.809Z,46.37
2023-06-29T06:04:39.767Z,46.47
2023-06-29T06:05:40.749Z,46.57
2023-06-29T06:06:40.774Z,46.54
2023-06-29T06:07:39.782Z,46.76
2023-06-29T06:08:40.745Z,46.97
2023-06-29T06:09:40.743Z,47.02
2023-06-29T06:10:40.804Z,47.10
2023-06-29T06:11:40.783Z,47.24
2023-06-29T06:12:40.713Z,47.43
2023-06-29T06:13:40.724Z,47.62
2023-06-29T06:14:40.790Z,47.72
2023-06-29T06:15:40.916Z,48.96
2023-06-29T06:16:41.476Z,48.92
2023-06-29T06:17:41.013Z,48.67
2023-06-29T06:18:41.038Z,48.33
2023-06-29T06:19:41.075Z,48.22
2023-06-29T06:20:40.124Z,48.37
2023-06-29T06:21:40.155Z,48.35
2023-06-29T06:22:41.260Z,48.54
2023-06-29T06:23:40.314Z,48.32
2023-06-29T06:24:40.349Z,48.63
2023-06-29T06:25:40.364Z,48.74
2023-06-29T06:26:41.434Z,47.89
2023-06-29T06:27:40.554Z,48.79
2023-06-29T06:28:41.592Z,48.77
2023-06-29T06:29:40.731Z,48.96
2023-06-29T06:30:42.264Z,48.66
2023-06-29T06:31:41.994Z,48.65
2023-06-29T06:32:41.859Z,48.71
2023-06-29T06:33:40.844Z,48.87
2023-06-29T06:34:41.881Z,48.86
2023-06-29T06:35:42.073Z,48.94
2023-06-29T06:36:41.004Z,47.42
2023-06-29T06:37:42.066Z,48.86
2023-06-29T06:38:50.203Z,48.83
2023-06-29T06:39:42.107Z,48.84
2023-06-29T06:40:41.124Z,48.90
2023-06-29T06:41:41.090Z,48.92
2023-06-29T06:42:42.111Z,48.89
2023-06-29T06:43:42.104Z,48.90
2023-06-29T06:44:42.086Z,48.92
2023-06-29T06:45:42.060Z,48.88
2023-06-29T06:46:41.103Z,48.85
2023-06-29T06:47:41.074Z,48.83
2023-06-29T06:48:42.047Z,48.65
2023-06-29T06:49:41.030Z,48.80
2023-06-29T06:50:42.379Z,48.93
2023-06-29T06:51:42.038Z,48.99
2023-06-29T06:52:42.033Z,49.09
2023-06-29T06:53:41.017Z,49.17
2023-06-29T06:54:42.027Z,49.29
2023-06-29T06:55:42.000Z,49.43
2023-06-29T06:56:40.994Z,49.34
2023-06-29T06:57:40.978Z,49.38
2023-06-29T06:58:41.989Z,49.52
2023-06-29T06:59:41.005Z,49.62
2023-06-29T07:00:41.033Z,49.68
2023-06-29T07:01:41.966Z,49.61
2023-06-29T07:02:42.002Z,49.58
2023-06-29T07:03:40.935Z,49.67
2023-06-29T07:04:41.945Z,49.75
2023-06-29T07:05:41.958Z,49.77
2023-06-29T07:06:42.033Z,49.85
2023-06-29T07:07:41.118Z,49.93
2023-06-29T07:08:41.917Z,50.42
2023-06-29T07:09:40.939Z,50.34
2023-06-29T07:10:42.248Z,50.61
2023-06-29T07:11:41.888Z,50.67
2023-06-29T07:12:40.890Z,50.60
2023-06-29T07:13:41.879Z,50.57
2023-06-29T07:14:40.888Z,50.57
2023-06-29T07:15:40.889Z,50.58
2023-06-29T07:16:41.918Z,50.47
2023-06-29T07:17:40.905Z,50.48
2023-06-29T07:18:41.844Z,50.58
2023-06-29T07:21:40.934Z,50.52
2023-06-29T07:24:40.813Z,50.73
2023-06-29T07:25:42.079Z,50.66
2023-06-29T07:26:41.836Z,50.70
2023-06-29T07:27:41.778Z,50.75
2023-06-29T07:28:41.792Z,50.84
2023-06-29T07:29:41.770Z,50.96
2023-06-29T07:30:40.819Z,47.91
2023-06-29T07:31:41.766Z,41.51
2023-06-29T07:32:41.850Z,42.92
2023-06-29T07:33:40.740Z,43.88
2023-06-29T07:34:40.757Z,44.41
2023-06-29T07:35:40.910Z,43.79
2023-06-29T07:36:41.730Z,43.27
2023-06-29T07:37:41.714Z,43.76
2023-06-29T07:38:41.732Z,43.30
2023-06-29T07:39:41.712Z,43.72
2023-06-29T07:40:40.711Z,43.21
2023-06-29T07:41:41.689Z,44.02
2023-06-29T07:42:41.740Z,44.49
2023-06-29T07:43:41.676Z,43.50
2023-06-29T07:44:41.679Z,43.64
2023-06-29T07:45:41.761Z,43.61
2023-06-29T07:46:41.659Z,43.44
2023-06-29T07:47:41.763Z,42.14
2023-06-29T07:48:41.931Z,41.69
2023-06-29T07:49:41.730Z,41.72
2023-06-29T07:50:41.641Z,41.99
2023-06-29T07:51:41.640Z,41.21
2023-06-29T07:52:41.639Z,42.74
2023-06-29T07:53:41.623Z,42.63
2023-06-29T07:54:41.713Z,42.61
2023-06-29T07:55:41.661Z,42.89
2023-06-29T07:58:40.808Z,42.68
2023-06-29T07:59:40.716Z,42.37
2023-06-29T08:00:41.602Z,42.74
2023-06-29T08:01:40.635Z,42.81
2023-06-29T08:02:40.689Z,43.03
2023-06-29T08:03:59.949Z,43.10
2023-06-29T08:07:40.609Z,43.30
2023-06-29T08:08:40.679Z,43.30
2023-06-29T08:09:41.576Z,43.39
2023-06-29T08:10:41.655Z,43.35
2023-06-29T08:11:41.524Z,43.60
2023-06-29T08:12:40.534Z,43.73
2023-06-29T08:13:41.516Z,43.77
2023-06-29T08:14:41.534Z,43.82
2023-06-29T08:15:41.509Z,44.09
2023-06-29T08:16:40.565Z,44.06
2023-06-29T08:17:41.495Z,44.09
2023-06-29T08:18:41.515Z,43.99
2023-06-29T08:19:41.476Z,44.12
2023-06-29T08:20:40.471Z,44.20
2023-06-29T08:21:41.466Z,44.28
2023-06-29T08:22:41.483Z,44.35
2023-06-29T08:23:41.457Z,44.34
2023-06-29T08:24:40.484Z,44.68
2023-06-29T08:25:41.429Z,44.58
2023-06-29T08:26:41.415Z,44.74
2023-06-29T08:27:41.416Z,44.96
2023-06-29T08:28:40.432Z,45.12
2023-06-29T08:29:40.408Z,45.29
2023-06-29T08:30:41.482Z,45.17
2023-06-29T08:31:40.454Z,45.22
2023-06-29T08:32:41.409Z,45.25
2023-06-29T08:33:40.397Z,45.60
2023-06-29T08:34:41.375Z,45.46
2023-06-29T08:35:40.362Z,45.46
2023-06-29T08:36:41.373Z,45.48
2023-06-29T08:37:41.352Z,45.47
2023-06-29T08:38:40.339Z,45.63
2023-06-29T08:39:41.348Z,45.34
2023-06-29T08:40:40.373Z,44.88
2023-06-29T08:41:41.307Z,44.92
2023-06-29T08:42:41.308Z,45.38
2023-06-29T08:43:40.307Z,44.58
2023-06-29T08:44:40.752Z,43.83
2023-06-29T08:45:41.357Z,44.27
2023-06-29T08:46:40.535Z,43.23
2023-06-29T08:47:40.373Z,42.69
2023-06-29T08:48:41.348Z,43.56
2023-06-29T08:49:41.354Z,43.56
2023-06-29T08:50:41.484Z,43.70
2023-06-29T08:51:41.431Z,43.97
2023-06-29T08:52:41.500Z,42.21
2023-06-29T08:53:41.505Z,42.08
2023-06-29T08:54:41.529Z,42.20
2023-06-29T08:55:41.585Z,41.71
2023-06-29T08:56:40.621Z,41.69
2023-06-29T08:57:41.703Z,41.43
2023-06-29T08:58:40.723Z,41.84
2023-06-29T08:59:41.772Z,41.87
2023-06-29T09:00:41.801Z,42.20
2023-06-29T09:01:41.837Z,42.34
2023-06-29T09:02:40.974Z,42.63
2023-06-29T09:03:41.991Z,42.90
2023-06-29T09:04:40.861Z,43.04
2023-06-29T09:05:41.835Z,43.14
2023-06-29T09:06:40.894Z,43.13
2023-06-29T09:07:40.964Z,43.52
2023-06-29T09:08:40.933Z,43.63
2023-06-29T09:09:41.974Z,43.87
2023-06-29T09:10:42.312Z,44.33
2023-06-29T09:11:43.802Z,44.36
2023-06-29T09:12:41.096Z,44.39
2023-06-29T09:13:42.104Z,44.44
2023-06-29T09:14:41.088Z,44.29
2023-06-29T09:15:42.132Z,44.28
2023-06-29T09:16:42.064Z,44.47
2023-06-29T09:17:42.101Z,43.77
2023-06-29T09:18:42.075Z,43.92
2023-06-29T09:19:42.042Z,43.98
2023-06-29T09:20:42.382Z,43.88
2023-06-29T09:21:42.018Z,43.63
2023-06-29T09:22:41.024Z,43.91
2023-06-29T09:23:41.005Z,43.87
2023-06-29T09:24:57.296Z,43.79
2023-06-29T09:25:42.061Z,43.60
2023-06-29T09:26:41.985Z,42.91
2023-06-29T09:27:41.992Z,43.10
2023-06-29T09:28:42.004Z,43.59
2023-06-29T09:29:40.990Z,42.90
2023-06-29T09:30:42.180Z,42.62
2023-06-29T09:31:41.992Z,42.99
2023-06-29T09:32:41.983Z,43.18
2023-06-29T09:33:41.958Z,42.86
2023-06-29T09:34:40.980Z,42.95
2023-06-29T09:35:41.954Z,42.90
2023-06-29T09:36:40.926Z,43.05
2023-06-29T09:37:41.927Z,43.69
2023-06-29T09:38:41.924Z,42.74
2023-06-29T09:39:41.930Z,43.04
2023-06-29T09:40:42.080Z,42.51
2023-06-29T09:41:41.911Z,42.73
2023-06-29T09:42:41.880Z,42.56
2023-06-29T09:43:41.895Z,43.15
2023-06-29T09:44:41.892Z,43.03
2023-06-29T09:45:41.888Z,42.94
2023-06-29T09:46:41.928Z,43.81
2023-06-29T09:49:40.915Z,42.36
2023-06-29T09:50:42.053Z,41.79
2023-06-29T09:51:41.818Z,42.53
2023-06-29T09:52:40.841Z,42.74
2023-06-29T09:53:41.805Z,43.12
2023-06-29T09:54:40.804Z,43.23
2023-06-29T09:55:41.827Z,43.14
2023-06-29T09:56:41.781Z,43.00
2023-06-29T09:57:41.802Z,42.31
2023-06-29T09:58:40.788Z,42.61
2023-06-29T09:59:40.804Z,43.10
2023-06-29T10:00:41.063Z,43.17
2023-06-29T10:01:41.941Z,43.15
2023-06-29T10:02:40.833Z,43.05
2023-06-29T10:03:41.811Z,42.77
2023-06-29T10:04:41.779Z,42.55
2023-06-29T10:05:41.776Z,42.76
2023-06-29T10:06:40.786Z,43.08
2023-06-29T10:07:40.881Z,43.11
2023-06-29T10:08:41.782Z,43.08
2023-06-29T10:09:41.798Z,43.05
2023-06-29T10:10:40.780Z,42.87
2023-06-29T10:11:41.890Z,42.89
2023-06-29T10:12:40.731Z,42.97
2023-06-29T10:13:40.730Z,42.94
2023-06-29T10:14:40.747Z,42.78
2023-06-29T10:15:40.730Z,42.56
2023-06-29T10:16:41.688Z,42.52
2023-06-29T10:17:41.832Z,42.55
2023-06-29T10:18:41.674Z,42.61
2023-06-29T10:19:40.699Z,42.57
2023-06-29T10:20:40.669Z,42.85
2023-06-29T10:21:41.648Z,42.87
2023-06-29T10:22:41.683Z,42.88
2023-06-29T10:23:40.641Z,42.69
2023-06-29T10:24:40.669Z,42.51
2023-06-29T10:25:40.608Z,42.68
2023-06-29T10:26:40.590Z,42.73
2023-06-29T10:27:40.606Z,42.81
2023-06-29T10:28:40.595Z,42.83
2023-06-29T10:29:41.569Z,42.80
2023-06-29T10:30:41.799Z,42.53
2023-06-29T10:31:41.563Z,42.51
2023-06-29T10:32:41.627Z,42.69
2023-06-29T10:33:41.546Z,42.60
2023-06-29T10:34:41.533Z,42.65
2023-06-29T10:35:41.521Z,42.65
2023-06-29T10:36:41.544Z,42.67
2023-06-29T10:37:41.510Z,42.63
2023-06-29T10:38:41.527Z,42.60
2023-06-29T10:39:41.487Z,42.59
2023-06-29T10:40:41.715Z,42.59
2023-06-29T10:41:40.474Z,42.56
2023-06-29T10:42:40.504Z,42.52
2023-06-29T10:43:41.486Z,42.45
2023-06-29T10:44:41.557Z,42.39
2023-06-29T10:45:41.793Z,42.21
2023-06-29T10:46:41.499Z,42.19
2023-06-29T10:47:40.488Z,41.45
2023-06-29T10:48:48.389Z,40.88
2023-06-29T10:49:41.440Z,41.03
2023-06-29T10:50:41.440Z,41.15
2023-06-29T10:51:41.458Z,41.23
2023-06-29T10:52:40.404Z,41.25
2023-06-29T10:53:41.453Z,41.43
2023-06-29T10:54:41.480Z,41.38
2023-06-29T10:55:40.402Z,41.04
2023-06-29T10:56:41.395Z,41.11
2023-06-29T10:57:41.385Z,41.27
2023-06-29T10:58:41.366Z,41.34
2023-06-29T10:59:41.355Z,41.39
2023-06-29T11:00:41.418Z,41.32
2023-06-29T11:01:41.429Z,41.22
2023-06-29T11:02:40.352Z,41.14
2023-06-29T11:03:40.422Z,41.24
2023-06-29T11:04:41.351Z,41.26
2023-06-29T11:05:41.323Z,41.25
2023-06-29T11:06:40.319Z,41.21
2023-06-29T11:07:40.545Z,41.08
2023-06-29T11:08:41.301Z,41.11
2023-06-29T11:09:40.294Z,40.94
2023-06-29T11:10:41.359Z,40.88
2023-06-29T11:11:41.302Z,41.07
2023-06-29T11:12:40.290Z,41.15
2023-06-29T11:13:40.281Z,41.08
2023-06-29T11:14:41.284Z,40.99
2023-06-29T11:15:41.256Z,41.02
2023-06-29T11:16:41.289Z,41.04
2023-06-29T11:17:40.331Z,41.18
2023-06-29T11:18:40.246Z,40.56
2023-06-29T11:19:40.232Z,40.27
2023-06-29T11:20:41.228Z,40.40
2023-06-29T11:21:41.213Z,40.68
2023-06-29T11:22:41.216Z,40.85
2023-06-29T11:23:41.208Z,40.91
2023-06-29T11:24:41.212Z,40.93
2023-06-29T11:25:40.196Z,40.92
2023-06-29T11:26:40.269Z,40.87
2023-06-29T11:27:41.192Z,40.73
2023-06-29T11:28:41.201Z,40.72
2023-06-29T11:29:41.175Z,40.67
2023-06-29T11:30:41.204Z,40.63
2023-06-29T11:31:40.227Z,40.50
2023-06-29T11:32:41.218Z,40.40
2023-06-29T11:33:40.170Z,40.63
2023-06-29T11:34:40.177Z,40.68
2023-06-29T11:35:41.248Z,40.65
2023-06-29T11:36:41.191Z,40.59
2023-06-29T11:37:40.237Z,40.59
2023-06-29T11:38:41.321Z,40.68
2023-06-29T11:39:40.233Z,40.65
2023-06-29T11:40:41.237Z,40.71
2023-06-29T11:41:41.263Z,40.70
2023-06-29T11:42:41.347Z,40.61
2023-06-29T11:43:41.284Z,40.51
2023-06-29T11:44:41.268Z,40.43
2023-06-29T11:45:41.299Z,40.33
2023-06-29T11:46:41.349Z,40.47
2023-06-29T11:47:41.375Z,40.51
2023-06-29T11:48:40.314Z,40.61
2023-06-29T11:49:41.306Z,40.54
2023-06-29T11:50:41.380Z,40.45
2023-06-29T11:51:40.640Z,40.50
2023-06-29T11:52:40.346Z,40.18
2023-06-29T11:53:40.371Z,40.22
2023-06-29T11:54:40.392Z,40.11
2023-06-29T11:55:40.384Z,40.19
2023-06-29T11:56:41.375Z,40.18
2023-06-29T11:57:41.385Z,39.88
2023-06-29T11:58:40.406Z,40.02
2023-06-29T11:59:41.370Z,39.91
2023-06-29T12:00:41.505Z,39.78
2023-06-29T12:01:41.397Z,39.70
2023-06-29T12:02:41.436Z,39.80
2023-06-29T12:03:41.478Z,39.74
2023-06-29T12:04:41.528Z,39.62
2023-06-29T12:05:40.436Z,39.81
2023-06-29T12:06:40.474Z,39.44
2023-06-29T12:07:41.542Z,39.61
2023-06-29T12:08:41.540Z,39.57
2023-06-29T12:09:41.469Z,39.38
2023-06-29T12:10:40.510Z,39.36
2023-06-29T12:11:41.475Z,39.43
2023-06-29T12:12:40.481Z,39.27
2023-06-29T12:13:40.480Z,39.44
2023-06-29T12:14:41.513Z,39.39
2023-06-29T12:18:40.579Z,39.17
2023-06-29T12:19:51.195Z,39.09
2023-06-29T12:20:41.801Z,39.10
2023-06-29T12:21:42.038Z,39.03
2023-06-29T12:22:40.444Z,38.80
2023-06-29T12:23:40.440Z,38.95
2023-06-29T12:24:41.416Z,38.92
2023-06-29T12:25:41.425Z,40.65
2023-06-29T12:26:40.397Z,41.46
2023-06-29T12:27:40.679Z,41.44
2023-06-29T12:28:40.399Z,40.18
2023-06-29T12:29:41.378Z,38.96
2023-06-29T12:30:41.402Z,38.07
2023-06-29T12:31:41.399Z,37.83
2023-06-29T12:32:41.371Z,37.72
2023-06-29T12:33:40.370Z,37.83
2023-06-29T12:34:40.337Z,37.56
2023-06-29T12:35:41.339Z,37.86
2023-06-29T12:36:41.332Z,37.74
2023-06-29T12:37:41.338Z,37.81
2023-06-29T12:38:41.336Z,37.88
2023-06-29T12:39:41.312Z,37.98
2023-06-29T12:40:41.322Z,37.96
2023-06-29T12:41:40.310Z,38.00
2023-06-29T12:42:41.304Z,37.99
2023-06-29T12:43:40.297Z,38.02
2023-06-29T12:44:41.291Z,38.10
2023-06-29T12:45:41.294Z,38.15
2023-06-29T12:46:40.311Z,38.18
2023-06-29T12:47:40.330Z,38.20
2023-06-29T12:48:41.261Z,38.28
2023-06-29T12:49:41.276Z,38.28
2023-06-29T12:50:40.263Z,38.37
2023-06-29T12:51:41.250Z,38.39
2023-06-29T12:52:41.242Z,38.40
2023-06-29T12:53:40.233Z,38.52
2023-06-29T12:54:40.234Z,38.55
2023-06-29T12:55:41.211Z,38.56
2023-06-29T12:56:40.209Z,38.54
2023-06-29T12:57:40.224Z,38.59
2023-06-29T12:58:40.208Z,38.60
2023-06-29T12:59:41.208Z,38.64
2023-06-29T13:00:40.245Z,38.67
2023-06-29T13:01:41.304Z,38.75
2023-06-29T13:02:41.392Z,38.74
2023-06-29T13:03:40.344Z,38.74
2023-06-29T13:04:40.381Z,38.79
2023-06-29T13:05:41.258Z,38.83
2023-06-29T13:06:40.274Z,38.86
2023-06-29T13:07:41.320Z,38.87
2023-06-29T13:08:41.275Z,38.85
2023-06-29T13:09:40.291Z,38.89
2023-06-29T13:10:41.295Z,38.98
2023-06-29T13:11:40.307Z,38.99
2023-06-29T13:12:40.313Z,38.96
2023-06-29T13:13:40.356Z,38.98
2023-06-29T13:14:40.316Z,38.91
2023-06-29T13:15:40.319Z,39.03
2023-06-29T13:16:40.370Z,39.05
2023-06-29T13:17:41.360Z,39.09
2023-06-29T13:18:41.393Z,39.10
2023-06-29T13:19:41.375Z,39.13
2023-06-29T13:20:41.395Z,39.16
2023-06-29T13:21:41.433Z,39.11
2023-06-29T13:22:41.417Z,39.14
2023-06-29T13:23:41.419Z,39.17
2023-06-29T13:24:41.442Z,39.20
2023-06-29T13:25:41.430Z,39.22
2023-06-29T13:26:41.451Z,39.22
2023-06-29T13:27:40.453Z,39.22
2023-06-29T13:28:41.478Z,39.29
2023-06-29T13:29:41.494Z,39.27
2023-06-29T13:30:40.532Z,39.30
2023-06-29T13:31:40.524Z,39.39
2023-06-29T13:32:41.545Z,39.41
2023-06-29T13:33:40.557Z,39.39
2023-06-29T13:34:41.657Z,39.44
2023-06-29T13:35:41.598Z,39.43
2023-06-29T13:36:41.608Z,39.42
2023-06-29T13:37:41.635Z,39.44
2023-06-29T13:38:41.636Z,39.44
2023-06-29T13:39:40.649Z,39.49
2023-06-29T13:40:40.683Z,39.49
2023-06-29T13:41:41.676Z,39.52
2023-06-29T13:42:41.675Z,39.54
2023-06-29T13:43:41.695Z,39.55
2023-06-29T13:44:41.721Z,39.56
2023-06-29T13:45:40.736Z,39.54
2023-06-29T13:46:41.751Z,39.52
2023-06-29T13:47:40.810Z,39.61
2023-06-29T13:48:41.810Z,39.58
2023-06-29T13:49:40.772Z,39.64
2023-06-29T13:50:42.252Z,39.65
2023-06-29T13:51:40.795Z,39.64
2023-06-29T13:52:40.808Z,39.65
2023-06-29T13:53:40.816Z,39.65
2023-06-29T13:54:40.828Z,39.66
2023-06-29T13:55:40.841Z,39.67
2023-06-29T13:56:41.924Z,39.71
2023-06-29T13:57:40.860Z,39.75
2023-06-29T13:58:40.858Z,39.72
2023-06-29T13:59:40.886Z,39.78
2023-06-29T14:00:40.877Z,39.75
2023-06-29T14:01:41.118Z,39.81
2023-06-29T14:02:40.925Z,39.80
2023-06-29T14:03:40.980Z,39.79
2023-06-29T14:04:41.934Z,39.82
2023-06-29T14:05:40.941Z,39.84
2023-06-29T14:06:40.993Z,39.88
2023-06-29T14:07:41.033Z,39.86
2023-06-29T14:08:41.971Z,39.88
2023-06-29T14:09:41.984Z,39.89
2023-06-29T14:10:40.981Z,39.90
2023-06-29T14:11:42.010Z,39.94
2023-06-29T14:12:41.001Z,39.93
2023-06-29T14:13:42.009Z,39.94
2023-06-29T14:14:41.041Z,39.95
2023-06-29T14:15:41.061Z,39.97
2023-06-29T14:16:42.080Z,39.95
2023-06-29T14:17:41.224Z,40.00
2023-06-29T14:18:41.288Z,39.97
2023-06-29T14:19:41.084Z,39.92
2023-06-29T14:20:41.093Z,39.99
2023-06-29T14:21:41.076Z,40.04
2023-06-29T14:22:41.141Z,40.05
2023-06-29T14:23:41.091Z,40.03
2023-06-29T14:24:42.083Z,40.06
2023-06-29T14:25:41.117Z,40.07
2023-06-29T14:26:41.108Z,40.07
2023-06-29T14:27:41.119Z,40.12
2023-06-29T14:28:41.104Z,40.09
2023-06-29T14:29:42.118Z,40.12
2023-06-29T14:30:41.162Z,40.16
2023-06-29T14:31:42.171Z,40.19
2023-06-29T14:32:42.209Z,40.18
2023-06-29T14:33:41.272Z,40.19
2023-06-29T14:34:41.174Z,40.19
2023-06-29T14:35:41.200Z,40.24
2023-06-29T14:36:42.203Z,40.30
2023-06-29T14:37:41.238Z,40.26
2023-06-29T14:38:41.271Z,40.24
2023-06-29T14:39:42.259Z,40.26
2023-06-29T14:40:42.283Z,40.31
2023-06-29T14:41:42.277Z,40.32
2023-06-29T14:42:41.297Z,40.31
2023-06-29T14:43:42.301Z,40.36
2023-06-29T14:44:42.156Z,40.38
2023-06-29T14:45:42.354Z,40.37
2023-06-29T14:46:42.484Z,40.37
2023-06-29T14:47:41.349Z,40.38
2023-06-29T14:48:42.304Z,40.40
2023-06-29T14:49:41.270Z,40.44
2023-06-29T14:50:42.264Z,40.45
2023-06-29T14:51:42.266Z,40.44
2023-06-29T14:52:42.259Z,40.46
2023-06-29T14:53:42.257Z,40.49
2023-06-29T14:54:41.287Z,40.50
2023-06-29T14:55:42.257Z,40.48
2023-06-29T14:56:41.291Z,40.53
2023-06-29T14:57:42.244Z,40.52
2023-06-29T14:58:42.338Z,40.53
2023-06-29T14:59:41.290Z,40.57
2023-06-29T15:00:41.208Z,40.57
2023-06-29T15:01:42.228Z,40.57
2023-06-29T15:02:42.290Z,40.57
2023-06-29T15:03:41.257Z,40.57
2023-06-29T15:04:41.186Z,40.62
2023-06-29T15:05:42.170Z,40.61
2023-06-29T15:06:42.163Z,40.65
2023-06-29T15:07:41.231Z,40.66
2023-06-29T15:08:42.147Z,40.65
2023-06-29T15:09:41.155Z,40.68
2023-06-29T15:10:42.154Z,40.68
2023-06-29T15:11:42.148Z,40.73
2023-06-29T15:12:41.137Z,40.70
2023-06-29T15:13:42.128Z,40.74
2023-06-29T15:14:41.121Z,40.75
2023-06-29T15:15:41.104Z,40.78
2023-06-29T15:16:42.301Z,40.85
2023-06-29T15:17:41.107Z,40.86
2023-06-29T15:18:54.466Z,40.83
2023-06-29T15:19:42.086Z,40.87
2023-06-29T15:20:41.070Z,40.87
2023-06-29T15:21:41.065Z,40.86
2023-06-29T15:22:42.044Z,40.92
2023-06-29T15:23:41.041Z,40.97
2023-06-29T15:24:42.037Z,40.95
2023-06-29T15:25:42.136Z,40.98
2023-06-29T15:26:42.091Z,40.98
2023-06-29T15:27:42.023Z,41.01
2023-06-29T15:28:42.005Z,40.99
2023-06-29T15:29:41.012Z,41.02
2023-06-29T15:30:52.860Z,41.05
2023-06-29T15:31:42.029Z,41.06
2023-06-29T15:32:42.045Z,41.10
2023-06-29T15:33:41.980Z,41.09
2023-06-29T15:34:40.982Z,41.08
2023-06-29T15:35:40.981Z,41.08
2023-06-29T15:36:40.963Z,41.11
2023-06-29T15:37:41.957Z,41.13
2023-06-29T15:38:40.933Z,41.15
2023-06-29T15:40:40.953Z,41.19
2023-06-29T15:41:40.929Z,41.20
2023-06-29T15:42:41.946Z,41.21
2023-06-29T15:43:41.904Z,41.21
2023-06-29T15:44:41.919Z,41.26
2023-06-29T15:45:40.889Z,41.26
2023-06-29T15:46:41.895Z,41.29
2023-06-29T15:47:40.951Z,41.26
2023-06-29T15:48:40.954Z,41.27
2023-06-29T15:49:41.888Z,41.32
2023-06-29T15:50:41.862Z,41.37
2023-06-29T15:51:41.865Z,41.41
2023-06-29T15:52:43.178Z,41.40
2023-06-29T15:53:40.837Z,41.41
2023-06-29T15:54:41.878Z,41.47
2023-06-29T15:55:41.869Z,41.44
2023-06-29T15:56:41.931Z,41.45
2023-06-29T15:57:40.938Z,41.48
2023-06-29T15:58:42.284Z,41.49
2023-06-29T15:59:40.966Z,41.52
2023-06-29T16:00:40.993Z,41.52
2023-06-29T16:01:41.023Z,41.54
2023-06-29T16:02:42.488Z,41.57
2023-06-29T16:03:41.243Z,41.59
2023-06-29T16:04:42.106Z,41.62
2023-06-29T16:05:41.110Z,41.66
2023-06-29T16:06:41.124Z,41.71
2023-06-29T16:07:41.255Z,41.74
2023-06-29T16:08:42.232Z,41.74
2023-06-29T16:09:42.216Z,41.74
2023-06-29T16:10:41.260Z,41.75
2023-06-29T16:11:41.278Z,41.77
2023-06-29T16:12:41.284Z,41.79
2023-06-29T16:13:42.368Z,41.80
2023-06-29T16:14:42.362Z,41.81
2023-06-29T16:15:42.379Z,41.81
2023-06-29T16:16:42.426Z,41.84
2023-06-29T16:17:42.452Z,41.88
2023-06-29T16:18:41.450Z,41.90
2023-06-29T16:19:42.485Z,41.91
2023-06-29T16:20:41.517Z,41.92
2023-06-29T16:21:41.530Z,41.92
2023-06-29T16:22:41.549Z,41.90
2023-06-29T16:23:41.551Z,41.95
2023-06-29T16:24:41.565Z,41.93
2023-06-29T16:25:41.601Z,41.96
2023-06-29T16:26:42.622Z,41.93
2023-06-29T16:27:41.672Z,41.96
2023-06-29T16:28:42.684Z,41.94
2023-06-29T16:29:41.691Z,41.95
2023-06-29T16:30:41.766Z,41.95
2023-06-29T16:31:44.155Z,41.96
2023-06-29T16:32:41.780Z,41.95
2023-06-29T16:33:41.736Z,41.94
2023-06-29T16:34:41.724Z,41.95
2023-06-29T16:35:41.718Z,41.95
2023-06-29T16:36:41.738Z,41.95
2023-06-29T16:37:41.742Z,41.94
2023-06-29T16:38:42.690Z,41.93
2023-06-29T16:39:41.684Z,41.93
2023-06-29T16:40:42.695Z,41.94
2023-06-29T16:41:42.689Z,41.95
2023-06-29T16:42:42.719Z,41.98
2023-06-29T16:43:42.680Z,41.97
2023-06-29T16:44:42.667Z,41.96
2023-06-29T16:45:41.656Z,41.99
2023-06-29T16:46:41.680Z,41.96
2023-06-29T16:47:42.792Z,41.98
2023-06-29T16:48:41.618Z,41.98
2023-06-29T16:49:42.610Z,41.98
2023-06-29T16:50:41.660Z,41.99
2023-06-29T16:51:42.638Z,41.97
2023-06-29T16:52:42.602Z,41.97
2023-06-29T16:53:41.601Z,41.98
2023-06-29T16:54:41.581Z,41.99
2023-06-29T16:55:41.573Z,42.00
2023-06-29T16:56:42.580Z,42.01
2023-06-29T16:57:41.640Z,42.01
2023-06-29T16:58:42.590Z,42.02
2023-06-29T16:59:41.543Z,42.03
2023-06-29T17:00:41.555Z,42.02
2023-06-29T17:01:41.588Z,42.01
2023-06-29T17:02:42.600Z,41.98
2023-06-29T17:03:42.613Z,41.99
2023-06-29T17:04:41.513Z,42.01
2023-06-29T17:05:41.509Z,41.98
2023-06-29T17:06:42.484Z,41.98
2023-06-29T17:07:42.516Z,41.98
2023-06-29T17:08:42.477Z,41.97
2023-06-29T17:09:42.477Z,41.99
2023-06-29T17:10:41.473Z,41.99
2023-06-29T17:11:41.454Z,42.02
2023-06-29T17:12:41.510Z,42.01
2023-06-29T17:13:42.434Z,42.04
2023-06-29T17:14:42.435Z,42.05
2023-06-29T17:15:41.637Z,42.07
2023-06-29T17:16:43.582Z,42.06
2023-06-29T17:17:41.667Z,42.06
2023-06-29T17:18:41.624Z,42.06
2023-06-29T17:19:41.639Z,42.06
2023-06-29T17:20:42.690Z,42.05
2023-06-29T17:21:42.752Z,42.04
2023-06-29T17:22:41.805Z,42.03
2023-06-29T17:23:42.834Z,42.03
2023-06-29T17:24:42.867Z,42.05
2023-06-29T17:25:43.075Z,42.06
2023-06-29T17:26:42.960Z,42.03
2023-06-29T17:27:43.001Z,42.02
2023-06-29T17:28:42.054Z,42.02
2023-06-29T17:29:42.070Z,42.01
2023-06-29T17:32:01.370Z,42.16
2023-06-29T17:33:02.185Z,42.10
2023-06-29T17:34:01.078Z,42.10
2023-06-29T17:35:01.090Z,42.07
2023-06-29T17:36:01.114Z,42.08
2023-06-29T17:37:01.056Z,42.06
2023-06-29T17:38:02.018Z,42.03
2023-06-29T17:39:01.055Z,42.05
2023-06-29T17:40:01.049Z,42.04
2023-06-29T17:41:01.013Z,42.05
2023-06-29T17:42:02.030Z,42.07
2023-06-29T17:43:01.000Z,42.04
2023-06-29T17:44:01.046Z,42.07
2023-06-29T17:45:02.053Z,42.08
2023-06-29T17:46:01.978Z,42.10
2023-06-29T17:47:02.015Z,42.09
2023-06-29T17:48:01.109Z,42.06
2023-06-29T17:49:02.129Z,42.07
2023-06-29T17:50:02.161Z,42.03
2023-06-29T17:51:01.237Z,42.09
2023-06-29T17:52:01.182Z,42.07
2023-06-29T17:53:02.206Z,42.07
2023-06-29T17:54:02.259Z,42.08
2023-06-29T17:55:02.308Z,42.09
2023-06-29T17:56:04.036Z,42.07
2023-06-29T17:57:01.295Z,42.05
2023-06-29T17:58:01.290Z,42.08
2023-06-29T17:59:02.278Z,42.07
2023-06-29T18:00:02.277Z,42.07
2023-06-29T18:01:01.249Z,42.06
2023-06-29T18:02:02.387Z,42.06
2023-06-29T18:03:02.302Z,42.09
2023-06-29T18:04:02.425Z,42.07